Creek Data

    Home     View Charts     View Raw Data     Messages

ID Distance Battery Voltage Battery Current Internal Temp Internal Humidity External Temp Solar Input rssi snr Time Stamp Record
65630 15.0 3.88 -5 49 52 50 0 -76 8 02/07/2026 08:00 PM 48426
65629 15.0 3.88 -5 49 53 50 0.1 -76 8 02/07/2026 07:45 PM 48425
65628 15.0 3.94 -5 50 53 50 0 -76 8 02/07/2026 07:30 PM 48424
65627 15.0 3.94 -5 51 53 52 0 -77 8 02/07/2026 07:15 PM 48423
65626 15.0 3.94 -5 52 54 52 0 -76 8 02/07/2026 07:00 PM 48422
65625 15.0 3.88 -5 53 54 54 0 -76 8 02/07/2026 06:45 PM 48421
65624 15.0 3.88 -5 55 54 55 0 -76 7 02/07/2026 06:30 PM 48420
65623 15.0 3.88 -5 57 54 58 0.1 -77 7 02/07/2026 06:15 PM 48419
65622 15.0 3.88 -5 58 54 58 0 -76 8 02/07/2026 06:00 PM 48418
65621 15.0 3.93 -9 60 55 60 3.2 -77 8 02/07/2026 05:45 PM 48417
65620 15.0 3.87 -5 61 55 60 2.1 -76 8 02/07/2026 05:30 PM 48416
65619 15.0 3.96 0 64 54 62 4.5 -76 8 02/07/2026 05:15 PM 48415
65618 15.0 3.96 19 65 55 62 4.6 -76 8 02/07/2026 05:00 PM 48414
65617 14.9 4.00 0 66 56 63 4.5 -76 8 02/07/2026 04:45 PM 48413
65616 15.1 3.94 20 69 55 64 4.5 -77 8 02/07/2026 04:30 PM 48412
65615 15.1 4.00 41 73 53 66 4.5 -76 8 02/07/2026 04:15 PM 48411
65614 15.1 3.93 0 76 51 69 5.1 -75 7 02/07/2026 04:00 PM 48410
65613 15.1 4.00 8 79 49 70 5.1 -75 8 02/07/2026 03:45 PM 48409
65612 15.1 3.93 8 79 48 71 5.1 -75 8 02/07/2026 03:30 PM 48408
65611 15.1 3.94 8 76 50 70 5.1 -75 8 02/07/2026 03:15 PM 48407
65610 15.1 4.02 8 78 49 69 5.1 -75 8 02/07/2026 03:00 PM 48406
65609 15.2 4.01 8 80 48 69 5.1 -75 8 02/07/2026 02:45 PM 48405
65608 15.2 3.93 8 80 48 67 5.1 -75 8 02/07/2026 02:30 PM 48404
65607 15.2 3.97 8 79 47 67 5.1 -75 8 02/07/2026 02:15 PM 48403
65606 15.2 3.93 8 78 48 65 5.1 -75 8 02/07/2026 02:00 PM 48402